createdAt,value
2023-03-20T00:00:50.369Z,23.30
2023-03-20T00:03:17.292Z,21.23
2023-03-20T00:05:43.972Z,25.80
2023-03-20T00:08:10.759Z,31.40
2023-03-20T00:10:40.557Z,27.55
2023-03-20T00:13:10.468Z,27.02
2023-03-20T00:15:39.265Z,30.77
2023-03-20T00:18:18.474Z,27.75
2023-03-20T00:20:46.459Z,37.35
2023-03-20T00:23:13.812Z,33.92
2023-03-20T00:25:41.427Z,25.85
2023-03-20T00:28:29.830Z,32.13
2023-03-20T00:30:56.542Z,25.35
2023-03-20T00:33:23.666Z,22.60
2023-03-20T00:35:50.558Z,24.48
2023-03-20T00:38:17.080Z,24.23
2023-03-20T00:40:43.713Z,23.05
2023-03-20T00:43:12.083Z,24.67
2023-03-20T00:45:38.885Z,25.88
2023-03-20T00:48:05.968Z,29.27
2023-03-20T00:50:33.515Z,21.13
2023-03-20T00:53:00.247Z,24.25
2023-03-20T00:55:28.840Z,22.05
2023-03-20T01:00:24.879Z,28.25
2023-03-20T01:02:54.293Z,22.42
2023-03-20T01:05:21.009Z,20.83
2023-03-20T01:07:47.844Z,24.80
2023-03-20T01:10:14.527Z,27.13
2023-03-20T01:12:42.264Z,23.15
2023-03-20T01:15:21.983Z,22.80
2023-03-20T01:17:49.409Z,25.58
2023-03-20T01:20:25.614Z,32.05
2023-03-20T01:22:52.140Z,22.80
2023-03-20T01:25:18.926Z,26.67
2023-03-20T01:27:50.936Z,19.85
2023-03-20T01:30:30.318Z,22.63
2023-03-20T01:33:00.348Z,24.98
2023-03-20T01:35:27.696Z,21.85
2023-03-20T01:37:54.684Z,27.38
2023-03-20T01:40:32.127Z,26.23
2023-03-20T01:42:58.671Z,19.73
2023-03-20T01:45:30.516Z,28.13
2023-03-20T01:47:58.920Z,19.38
2023-03-20T01:50:32.035Z,17.67
2023-03-20T01:53:24.521Z,24.98
2023-03-20T01:55:54.403Z,23.85
2023-03-20T01:58:26.296Z,18.17
2023-03-20T02:00:53.551Z,29.15
2023-03-20T02:03:21.194Z,26.23
2023-03-20T02:05:48.438Z,22.75
2023-03-20T02:08:28.283Z,23.92
2023-03-20T02:10:56.416Z,26.98
2023-03-20T02:13:23.614Z,22.42
2023-03-20T02:16:05.763Z,21.27
2023-03-20T02:18:32.598Z,23.02
2023-03-20T02:21:24.274Z,24.63
2023-03-20T02:23:59.794Z,29.60
2023-03-20T02:26:35.240Z,28.27
2023-03-20T02:29:33.137Z,26.42
2023-03-20T02:32:43.369Z,24.48
2023-03-20T02:35:38.092Z,20.92
2023-03-20T02:38:11.592Z,24.88
2023-03-20T02:40:55.607Z,23.42
2023-03-20T02:43:26.115Z,29.00
2023-03-20T02:45:59.621Z,20.02
2023-03-20T02:48:47.582Z,27.38
2023-03-20T02:51:24.805Z,29.60
2023-03-20T02:54:00.857Z,22.80
2023-03-20T02:56:35.804Z,29.23
2023-03-20T03:01:37.456Z,18.90
2023-03-20T03:04:12.548Z,20.33
2023-03-20T03:06:41.745Z,24.20
2023-03-20T03:09:16.506Z,26.80
2023-03-20T03:11:49.850Z,24.38
2023-03-20T03:14:49.270Z,26.30
2023-03-20T03:17:17.712Z,25.92
2023-03-20T03:19:48.441Z,27.75
2023-03-20T03:22:18.878Z,23.58
2023-03-20T03:24:50.464Z,26.60
2023-03-20T03:27:20.472Z,26.92
2023-03-20T03:29:54.078Z,21.77
2023-03-20T03:32:49.136Z,22.35
2023-03-20T03:35:18.366Z,24.13
2023-03-20T03:38:13.590Z,29.25
2023-03-20T03:40:44.641Z,21.63
2023-03-20T03:43:22.940Z,26.55
2023-03-20T03:46:00.016Z,20.48
2023-03-20T03:48:36.137Z,28.00
2023-03-20T03:51:08.005Z,28.98
2023-03-20T03:53:52.384Z,25.08
2023-03-20T03:56:22.065Z,27.15
2023-03-20T03:58:50.591Z,26.73
2023-03-20T04:03:47.621Z,22.85
2023-03-20T04:06:15.931Z,30.35
2023-03-20T04:08:42.666Z,25.38
2023-03-20T04:11:24.363Z,31.05
2023-03-20T04:13:52.432Z,27.25
2023-03-20T04:16:20.861Z,27.20
2023-03-20T04:21:15.856Z,26.92
2023-03-20T04:23:42.945Z,22.00
2023-03-20T04:26:09.518Z,22.85
2023-03-20T04:28:36.237Z,24.45
2023-03-20T04:31:02.946Z,25.58
2023-03-20T04:33:29.833Z,33.35
2023-03-20T04:35:56.662Z,25.15
2023-03-20T04:38:24.172Z,24.30
2023-03-20T04:40:51.143Z,32.22
2023-03-20T04:43:17.723Z,24.48
2023-03-20T04:45:44.416Z,24.80
2023-03-20T04:48:10.987Z,32.40
2023-03-20T04:50:37.696Z,31.08
2023-03-20T04:53:04.472Z,40.08
2023-03-20T04:55:31.025Z,30.55
2023-03-20T04:57:57.535Z,34.30
2023-03-20T05:00:24.222Z,32.50
2023-03-20T05:02:50.845Z,30.35
2023-03-20T05:05:17.444Z,22.52
2023-03-20T05:07:44.015Z,39.53
2023-03-20T05:10:11.408Z,34.60
2023-03-20T05:12:37.905Z,26.40
2023-03-20T05:15:04.768Z,34.08
2023-03-20T05:17:31.289Z,27.98
2023-03-20T05:19:57.980Z,29.70
2023-03-20T05:22:24.596Z,29.42
2023-03-20T05:24:51.281Z,30.88
2023-03-20T05:27:18.348Z,27.67
2023-03-20T05:29:44.963Z,29.75
2023-03-20T05:32:12.752Z,28.30
2023-03-20T05:34:39.269Z,37.08
2023-03-20T05:37:06.016Z,24.52
2023-03-20T05:39:32.556Z,29.77
2023-03-20T05:41:59.119Z,24.33
2023-03-20T05:44:25.722Z,27.90
2023-03-20T05:46:52.310Z,37.08
2023-03-20T05:49:18.839Z,24.77
2023-03-20T05:51:45.512Z,23.65
2023-03-20T05:54:12.094Z,31.70
2023-03-20T05:56:38.731Z,33.83
2023-03-20T05:59:05.600Z,23.10
2023-03-20T06:01:32.147Z,30.15
2023-03-20T06:03:58.789Z,30.45
2023-03-20T06:06:25.642Z,19.40
2023-03-20T06:08:52.162Z,29.52
2023-03-20T06:11:18.667Z,25.65
2023-03-20T06:13:45.397Z,25.70
2023-03-20T06:16:12.071Z,31.45
2023-03-20T06:18:39.309Z,26.83
2023-03-20T06:21:06.152Z,26.95
2023-03-20T06:23:32.756Z,21.52
2023-03-20T06:25:59.409Z,23.55
2023-03-20T06:28:26.242Z,21.33
2023-03-20T06:30:56.667Z,22.80
2023-03-20T06:33:23.283Z,24.30
2023-03-20T06:35:50.613Z,21.25
2023-03-20T06:38:17.280Z,26.88
2023-03-20T06:40:45.193Z,22.00
2023-03-20T06:43:12.556Z,24.23
2023-03-20T06:45:39.663Z,24.13
2023-03-20T06:48:09.599Z,24.45
2023-03-20T06:50:36.464Z,29.02
2023-03-20T06:53:03.507Z,23.85
2023-03-20T06:55:30.023Z,21.80
2023-03-20T06:57:56.963Z,24.45
2023-03-20T07:00:23.887Z,25.10
2023-03-20T07:02:50.551Z,25.35
2023-03-20T07:05:18.377Z,23.50
2023-03-20T07:07:44.987Z,26.17
2023-03-20T07:10:12.544Z,27.58
2023-03-20T07:12:39.175Z,25.52
2023-03-20T07:15:06.781Z,21.13
2023-03-20T07:17:33.353Z,22.33
2023-03-20T07:19:59.893Z,25.52
2023-03-20T07:22:28.101Z,20.42
2023-03-20T07:24:54.683Z,25.65
2023-03-20T07:27:21.331Z,23.80
2023-03-20T07:29:47.935Z,22.13
2023-03-20T07:32:14.721Z,24.63
2023-03-20T07:34:41.332Z,24.77
2023-03-20T07:37:07.992Z,17.67
2023-03-20T07:39:34.585Z,29.77
2023-03-20T07:42:01.178Z,22.02
2023-03-20T07:44:27.730Z,25.88
2023-03-20T07:46:54.468Z,22.48
2023-03-20T07:49:21.054Z,26.83
2023-03-20T07:51:48.823Z,19.83
2023-03-20T07:54:16.339Z,20.15
2023-03-20T07:56:43.210Z,24.70
2023-03-20T07:59:09.768Z,24.67
2023-03-20T08:01:36.344Z,22.27
2023-03-20T08:04:03.020Z,25.98
2023-03-20T08:06:29.884Z,28.13
2023-03-20T08:08:56.834Z,17.65
2023-03-20T08:11:23.363Z,29.80
2023-03-20T08:13:49.957Z,24.20
2023-03-20T08:16:16.710Z,22.10
2023-03-20T08:18:43.311Z,23.80
2023-03-20T08:21:10.034Z,23.27
2023-03-20T08:23:36.660Z,24.88
2023-03-20T08:26:03.228Z,28.15
2023-03-20T08:28:46.207Z,34.42
2023-03-20T08:31:14.416Z,22.83
2023-03-20T08:33:41.060Z,26.85
2023-03-20T08:36:08.137Z,28.15
2023-03-20T08:38:34.800Z,34.35
2023-03-20T08:41:01.404Z,26.00
2023-03-20T08:43:27.988Z,26.13
2023-03-20T08:45:54.709Z,25.55
2023-03-20T08:48:21.761Z,28.55
2023-03-20T08:50:48.439Z,27.77
2023-03-20T08:53:14.972Z,26.02
2023-03-20T08:55:41.703Z,26.92
2023-03-20T08:58:08.314Z,26.67
2023-03-20T09:00:34.887Z,23.27
2023-03-20T09:03:01.558Z,37.50
2023-03-20T09:05:28.133Z,25.42
2023-03-20T09:07:54.703Z,28.20
2023-03-20T09:10:21.263Z,25.92
2023-03-20T09:12:47.817Z,22.60
2023-03-20T09:15:14.370Z,30.77
2023-03-20T09:17:41.040Z,37.13
2023-03-20T09:20:08.442Z,26.98
2023-03-20T09:22:34.947Z,28.98
2023-03-20T09:25:01.490Z,30.20
2023-03-20T09:27:27.979Z,23.50
2023-03-20T09:29:54.536Z,26.00
2023-03-20T09:32:21.698Z,24.92
2023-03-20T09:34:48.285Z,29.02
2023-03-20T09:37:14.778Z,30.23
2023-03-20T09:39:41.727Z,35.08
2023-03-20T09:42:19.867Z,34.03
2023-03-20T09:45:16.361Z,25.83
2023-03-20T09:47:54.541Z,31.55
2023-03-20T09:51:05.100Z,27.65
2023-03-20T09:53:44.952Z,30.40
2023-03-20T09:56:16.256Z,28.73
2023-03-20T09:58:42.902Z,34.65
2023-03-20T10:01:14.397Z,29.40
2023-03-20T10:03:51.564Z,29.83
2023-03-20T10:06:18.434Z,32.30
2023-03-20T10:08:45.993Z,37.50
2023-03-20T10:11:31.443Z,33.25
2023-03-20T10:13:59.421Z,28.60
2023-03-20T10:16:57.420Z,34.53
2023-03-20T10:19:32.356Z,32.80
2023-03-20T10:24:56.933Z,26.02
2023-03-20T10:27:28.325Z,32.03
2023-03-20T10:30:07.556Z,27.05
2023-03-20T10:32:50.577Z,35.83
2023-03-20T10:35:24.387Z,33.72
2023-03-20T10:38:18.944Z,31.75
2023-03-20T10:40:46.122Z,34.28
2023-03-20T10:43:19.941Z,37.33
2023-03-20T10:45:49.579Z,29.60
2023-03-20T10:48:18.751Z,29.52
2023-03-20T10:50:52.056Z,28.13
2023-03-20T10:53:28.343Z,29.83
2023-03-20T10:55:58.563Z,31.42
2023-03-20T10:58:28.394Z,31.10
2023-03-20T11:00:55.955Z,41.15
2023-03-20T11:03:28.585Z,32.38
2023-03-20T11:06:12.615Z,27.77
2023-03-20T11:08:41.926Z,28.25
2023-03-20T11:11:09.262Z,37.72
2023-03-20T11:13:46.334Z,29.92
2023-03-20T11:16:19.369Z,33.15
2023-03-20T11:18:49.357Z,29.98
2023-03-20T11:21:27.315Z,26.45
2023-03-20T11:23:54.602Z,34.42
2023-03-20T11:26:35.629Z,28.77
2023-03-20T11:29:02.482Z,33.42
2023-03-20T11:31:34.400Z,30.42
2023-03-20T11:34:06.955Z,22.35
2023-03-20T11:36:35.646Z,36.47
2023-03-20T11:39:29.796Z,35.47
2023-03-20T11:44:24.817Z,31.52
2023-03-20T11:47:12.635Z,31.80
2023-03-20T11:52:16.812Z,34.67
2023-03-20T11:54:51.689Z,26.98
2023-03-20T12:00:23.459Z,32.53
2023-03-20T12:02:50.643Z,34.78
2023-03-20T12:05:37.695Z,40.42
2023-03-20T12:08:16.305Z,33.70
2023-03-20T12:10:46.176Z,39.72
2023-03-20T12:13:18.263Z,35.22
2023-03-20T12:15:47.939Z,43.15
2023-03-20T12:18:38.868Z,41.88
2023-03-20T12:21:21.315Z,41.10
2023-03-20T12:23:51.557Z,40.00
2023-03-20T12:26:27.352Z,36.13
2023-03-20T12:29:08.269Z,38.80
2023-03-20T12:31:52.299Z,29.63
2023-03-20T12:34:25.009Z,40.58
2023-03-20T12:36:57.689Z,43.60
2023-03-20T12:39:33.772Z,40.88
2023-03-20T12:42:15.892Z,35.13
2023-03-20T12:44:56.036Z,40.15
2023-03-20T12:47:41.604Z,39.55
2023-03-20T12:50:25.012Z,42.63
2023-03-20T12:52:54.440Z,32.15
2023-03-20T12:55:23.124Z,35.90
2023-03-20T12:57:56.618Z,38.67
2023-03-20T13:00:34.428Z,38.38
2023-03-20T13:03:04.275Z,43.72
2023-03-20T13:05:33.719Z,39.47
2023-03-20T13:08:22.326Z,40.20
2023-03-20T13:10:57.724Z,32.95
2023-03-20T13:13:33.988Z,32.47
2023-03-20T13:16:12.393Z,33.78
2023-03-20T13:18:48.035Z,34.63
2023-03-20T13:21:38.737Z,34.17
2023-03-20T13:24:27.797Z,31.13
2023-03-20T13:27:32.422Z,29.88
2023-03-20T13:29:58.895Z,27.65
2023-03-20T13:32:37.621Z,39.83
2023-03-20T13:35:25.617Z,32.72
2023-03-20T13:37:55.993Z,36.58
2023-03-20T13:40:26.537Z,47.10
2023-03-20T13:43:13.478Z,38.17
2023-03-20T13:45:41.854Z,40.15
2023-03-20T13:48:33.165Z,46.83
2023-03-20T13:51:37.490Z,50.45
2023-03-20T13:54:34.182Z,40.45
2023-03-20T13:57:25.600Z,45.50
2023-03-20T14:00:01.186Z,43.75
2023-03-20T14:02:36.911Z,39.70
2023-03-20T14:05:12.594Z,42.72
2023-03-20T14:07:42.848Z,46.28
2023-03-20T14:10:21.421Z,41.00
2023-03-20T14:12:56.759Z,39.63
2023-03-20T14:15:27.519Z,39.80
2023-03-20T14:17:54.129Z,49.10
2023-03-20T14:20:47.761Z,43.80
2023-03-20T14:23:19.162Z,40.60
2023-03-20T14:25:47.795Z,41.35
2023-03-20T14:28:14.252Z,43.35
2023-03-20T14:30:46.690Z,38.70
2023-03-20T14:33:13.277Z,42.70
2023-03-20T14:35:49.239Z,42.85
2023-03-20T14:38:26.053Z,50.17
2023-03-20T14:41:14.644Z,46.38
2023-03-20T14:43:59.153Z,38.40
2023-03-20T14:46:40.768Z,49.88
2023-03-20T14:49:28.823Z,45.15
2023-03-20T14:52:01.162Z,45.35
2023-03-20T14:54:29.792Z,42.35
2023-03-20T14:57:08.657Z,40.67
2023-03-20T14:59:36.039Z,39.97
2023-03-20T15:02:03.224Z,37.53
2023-03-20T15:04:37.193Z,44.30
2023-03-20T15:07:11.043Z,45.78
2023-03-20T15:09:41.261Z,49.25
2023-03-20T15:12:07.860Z,44.97
2023-03-20T15:14:53.967Z,47.38
2023-03-20T15:17:23.270Z,49.78
2023-03-20T15:19:50.155Z,38.78
2023-03-20T15:22:19.587Z,40.30
2023-03-20T15:24:56.953Z,42.72
2023-03-20T15:27:26.476Z,39.30
2023-03-20T15:29:54.496Z,35.65
2023-03-20T15:32:21.566Z,43.10
2023-03-20T15:34:49.269Z,37.88
2023-03-20T15:37:17.701Z,43.47
2023-03-20T15:42:18.341Z,35.08
2023-03-20T15:44:48.140Z,31.80
2023-03-20T15:47:17.377Z,45.17
2023-03-20T15:49:49.873Z,34.95
2023-03-20T15:52:19.268Z,35.20
2023-03-20T15:54:46.610Z,23.20
2023-03-20T15:57:26.224Z,28.15
2023-03-20T15:59:52.874Z,19.10
2023-03-20T16:02:19.710Z,23.50
2023-03-20T16:04:49.121Z,27.10
2023-03-20T16:07:31.678Z,23.30
2023-03-20T16:09:59.836Z,18.83
2023-03-20T16:12:29.105Z,15.48
2023-03-20T16:14:56.017Z,16.88
2023-03-20T16:17:24.536Z,14.38
2023-03-20T16:19:51.781Z,17.80
2023-03-20T16:22:25.298Z,16.05
2023-03-20T16:24:55.578Z,17.35
2023-03-20T16:27:28.653Z,23.10
2023-03-20T16:29:56.039Z,17.23
2023-03-20T16:32:26.905Z,14.68
2023-03-20T16:34:56.136Z,20.38
2023-03-20T16:37:30.619Z,21.83
2023-03-20T16:40:14.769Z,19.42
2023-03-20T16:42:41.777Z,18.45
2023-03-20T16:45:19.903Z,20.48
2023-03-20T16:47:48.312Z,24.27
2023-03-20T16:52:56.886Z,22.60
2023-03-20T16:55:31.756Z,26.80
2023-03-20T17:00:25.901Z,22.25
2023-03-20T17:03:17.747Z,20.08
2023-03-20T17:05:49.028Z,23.70
2023-03-20T17:08:18.046Z,19.20
2023-03-20T17:10:58.178Z,22.30
2023-03-20T17:13:24.757Z,21.90
2023-03-20T17:15:51.297Z,18.90
2023-03-20T17:18:17.916Z,22.15
2023-03-20T17:20:44.619Z,23.13
2023-03-20T17:23:18.056Z,27.92
2023-03-20T17:25:44.749Z,23.08
2023-03-20T17:28:22.742Z,23.85
2023-03-20T17:30:51.071Z,22.98
2023-03-20T17:33:20.900Z,19.55
2023-03-20T17:35:48.146Z,20.63
2023-03-20T17:38:21.396Z,24.80
2023-03-20T17:40:49.452Z,15.18
2023-03-20T17:43:17.619Z,14.18
2023-03-20T17:48:17.108Z,22.42
2023-03-20T17:50:45.637Z,16.38
2023-03-20T17:53:15.346Z,16.67
2023-03-20T17:55:41.974Z,17.25
2023-03-20T17:58:17.403Z,15.70
2023-03-20T18:00:44.473Z,15.13
2023-03-20T18:03:11.322Z,17.77
2023-03-20T18:05:39.720Z,17.35
2023-03-20T18:10:37.177Z,14.02
2023-03-20T18:13:04.259Z,17.42
2023-03-20T18:15:31.406Z,14.32
2023-03-20T18:17:57.990Z,14.55
2023-03-20T18:20:31.000Z,17.85
2023-03-20T18:22:57.772Z,17.33
2023-03-20T18:25:26.003Z,16.73
2023-03-20T18:27:56.900Z,20.27
2023-03-20T18:30:27.226Z,22.48
2023-03-20T18:32:53.846Z,17.45
2023-03-20T18:35:20.443Z,15.82
2023-03-20T18:37:47.171Z,21.67
2023-03-20T18:40:26.144Z,17.00
2023-03-20T18:42:54.129Z,21.95
2023-03-20T18:45:21.932Z,16.55
2023-03-20T18:47:48.891Z,17.25
2023-03-20T18:50:31.044Z,17.10
2023-03-20T18:52:58.856Z,21.70
2023-03-20T18:55:27.184Z,20.35
2023-03-20T18:57:53.913Z,21.05
2023-03-20T19:00:26.116Z,24.73
2023-03-20T19:02:55.464Z,24.90
2023-03-20T19:05:23.664Z,21.48
2023-03-20T19:07:50.941Z,22.73
2023-03-20T19:10:28.068Z,21.38
2023-03-20T19:12:55.262Z,23.23
2023-03-20T19:15:22.700Z,24.45
2023-03-20T19:17:49.352Z,25.70
2023-03-20T19:20:42.639Z,20.15
2023-03-20T19:23:11.199Z,21.08
2023-03-20T19:25:38.135Z,22.67
2023-03-20T19:28:05.526Z,23.52
2023-03-20T19:30:38.347Z,25.60
2023-03-20T19:33:06.859Z,28.23
2023-03-20T19:36:01.065Z,23.33
2023-03-20T19:38:21.721Z,21.40
2023-03-20T19:40:52.840Z,21.67
2023-03-20T19:43:21.576Z,22.70
2023-03-20T19:45:56.447Z,22.48
2023-03-20T19:48:43.387Z,21.27
2023-03-20T19:51:21.934Z,25.15
2023-03-20T19:53:49.512Z,20.42
2023-03-20T19:56:17.703Z,22.27
2023-03-20T19:58:44.565Z,26.05
2023-03-20T20:01:17.205Z,23.75
2023-03-20T20:03:44.867Z,26.58
2023-03-20T20:06:12.351Z,24.77
2023-03-20T20:08:47.931Z,25.27
2023-03-20T20:11:16.140Z,25.85
2023-03-20T20:14:04.249Z,22.65
2023-03-20T20:16:29.830Z,23.70
2023-03-20T20:18:56.546Z,22.55
2023-03-20T20:24:09.936Z,23.73
2023-03-20T20:26:41.292Z,25.13
2023-03-20T20:29:14.409Z,25.20
2023-03-20T20:31:41.353Z,24.35
2023-03-20T20:35:08.543Z,22.13
2023-03-20T20:39:41.260Z,23.85
2023-03-20T20:42:07.850Z,21.73
2023-03-20T20:44:34.726Z,24.52
2023-03-20T20:47:01.376Z,21.83
2023-03-20T20:49:27.982Z,22.17
2023-03-20T20:51:54.788Z,23.40
2023-03-20T20:54:21.362Z,21.25
2023-03-20T20:56:48.013Z,23.77
2023-03-20T20:59:14.772Z,25.08
2023-03-20T21:01:41.449Z,29.92
2023-03-20T21:04:08.060Z,26.17
2023-03-20T21:07:05.776Z,23.05
2023-03-20T21:09:21.267Z,26.10
2023-03-20T21:11:48.738Z,24.77
2023-03-20T21:14:15.420Z,25.65
2023-03-20T21:16:42.010Z,24.30
2023-03-20T21:19:08.539Z,26.35
2023-03-20T21:21:35.727Z,24.38
2023-03-20T21:24:02.726Z,25.40
2023-03-20T21:26:29.424Z,24.13
2023-03-20T21:28:56.015Z,23.35
2023-03-20T21:31:28.459Z,21.02
2023-03-20T21:33:57.520Z,19.27
2023-03-20T21:36:24.152Z,20.27
2023-03-20T21:39:07.435Z,23.40
2023-03-20T21:41:37.344Z,23.65
2023-03-20T21:44:04.991Z,20.13
2023-03-20T21:47:04.041Z,19.95
2023-03-20T22:03:30.849Z,20.98
2023-03-20T22:15:28.756Z,22.70
2023-03-20T22:20:46.855Z,26.75
2023-03-20T22:23:30.826Z,24.33
2023-03-20T22:29:07.110Z,26.33
2023-03-20T22:45:10.115Z,20.17
2023-03-20T22:47:37.134Z,24.80
2023-03-20T22:50:04.012Z,20.05
2023-03-20T22:52:49.369Z,21.65
2023-03-20T22:55:17.520Z,25.88
2023-03-20T22:57:56.083Z,19.98
2023-03-20T23:00:31.008Z,22.17
2023-03-20T23:03:13.729Z,24.50
2023-03-20T23:05:42.646Z,17.75
2023-03-20T23:08:10.987Z,21.40
2023-03-20T23:10:40.354Z,20.27
2023-03-20T23:13:07.491Z,20.77
2023-03-20T23:15:34.129Z,20.70
2023-03-20T23:18:00.632Z,20.50
2023-03-20T23:20:27.208Z,21.80
2023-03-20T23:22:53.743Z,20.83
2023-03-20T23:25:31.110Z,21.27
2023-03-20T23:28:05.128Z,22.63
2023-03-20T23:30:43.422Z,23.25
2023-03-20T23:33:11.684Z,18.65
2023-03-20T23:35:38.330Z,25.13
2023-03-20T23:38:04.975Z,20.13
2023-03-20T23:40:31.690Z,19.65
2023-03-20T23:42:58.213Z,23.02
2023-03-20T23:45:26.021Z,28.45
2023-03-20T23:47:52.581Z,22.38
2023-03-20T23:50:36.701Z,20.75
2023-03-20T23:53:19.529Z,24.38
2023-03-20T23:55:48.060Z,24.10
2023-03-20T23:58:14.846Z,23.15
